sensor_id;sensor_type;location;lat;lon;timestamp;pressure;altitude;pressure_sealevel;temperature;humidity
6136;BME280;24008;42.664;23.372;2023-09-08T00:01:10;95285.84;;;19.02;83.82
6136;BME280;24008;42.664;23.372;2023-09-08T00:03:38;95285.41;;;18.98;84.35
6136;BME280;24008;42.664;23.372;2023-09-08T00:06:05;95287.34;;;18.96;84.05
6136;BME280;24008;42.664;23.372;2023-09-08T00:08:31;95280.59;;;18.95;84.10
6136;BME280;24008;42.664;23.372;2023-09-08T00:10:58;95102.94;;;17.83;84.03
6136;BME280;24008;42.664;23.372;2023-09-08T00:13:25;95304.88;;;18.94;84.29
6136;BME280;24008;42.664;23.372;2023-09-08T00:15:51;95280.13;;;18.92;84.40
6136;BME280;24008;42.664;23.372;2023-09-08T00:18:18;95195.84;;;18.37;84.73
6136;BME280;24008;42.664;23.372;2023-09-08T00:20:47;95283.88;;;18.89;81.68
6136;BME280;24008;42.664;23.372;2023-09-08T00:23:14;95254.06;;;18.79;77.92
6136;BME280;24008;42.664;23.372;2023-09-08T00:25:41;95284.59;;;18.98;77.31
6136;BME280;24008;42.664;23.372;2023-09-08T00:28:07;95247.25;;;18.78;75.89
6136;BME280;24008;42.664;23.372;2023-09-08T00:30:34;95226.72;;;18.61;75.44
6136;BME280;24008;42.664;23.372;2023-09-08T00:33:01;95292.47;;;19.04;74.27
6136;BME280;24008;42.664;23.372;2023-09-08T00:35:27;95230.03;;;18.70;74.00
6136;BME280;24008;42.664;23.372;2023-09-08T00:37:55;95206.69;;;18.55;71.50
6136;BME280;24008;42.664;23.372;2023-09-08T00:40:32;95276.38;;;19.09;72.54
6136;BME280;24008;42.664;23.372;2023-09-08T00:43:17;95277.16;;;19.10;72.86
6136;BME280;24008;42.664;23.372;2023-09-08T00:45:45;95278.34;;;19.07;72.48
6136;BME280;24008;42.664;23.372;2023-09-08T00:48:12;95153.56;;;18.30;72.19
6136;BME280;24008;42.664;23.372;2023-09-08T00:50:39;95289.69;;;19.06;71.05
6136;BME280;24008;42.664;23.372;2023-09-08T00:53:08;95157.94;;;18.29;71.28
6136;BME280;24008;42.664;23.372;2023-09-08T00:55:35;95050.47;;;17.60;71.15
6136;BME280;24008;42.664;23.372;2023-09-08T00:58:02;95271.13;;;19.02;70.46
6136;BME280;24008;42.664;23.372;2023-09-08T01:00:29;95202.31;;;18.56;70.13
6136;BME280;24008;42.664;23.372;2023-09-08T01:02:57;95266.91;;;19.01;69.43
6136;BME280;24008;42.664;23.372;2023-09-08T01:05:23;95212.09;;;18.68;69.07
6136;BME280;24008;42.664;23.372;2023-09-08T01:07:51;95277.44;;;19.00;69.31
6136;BME280;24008;42.664;23.372;2023-09-08T01:10:20;95268.78;;;18.93;69.35
6136;BME280;24008;42.664;23.372;2023-09-08T01:12:46;95278.00;;;18.95;69.49
6136;BME280;24008;42.664;23.372;2023-09-08T01:15:13;95273.81;;;18.94;69.85
6136;BME280;24008;42.664;23.372;2023-09-08T01:17:40;95212.47;;;18.43;69.83
6136;BME280;24008;42.664;23.372;2023-09-08T01:20:13;95284.97;;;18.95;70.11
6136;BME280;24008;42.664;23.372;2023-09-08T01:22:55;95219.00;;;18.53;70.16
6136;BME280;24008;42.664;23.372;2023-09-08T01:25:29;95245.66;;;18.77;70.89
6136;BME280;24008;42.664;23.372;2023-09-08T01:28:00;95269.44;;;18.95;71.59
6136;BME280;24008;42.664;23.372;2023-09-08T01:30:28;95172.50;;;18.30;72.31
6136;BME280;24008;42.664;23.372;2023-09-08T01:32:58;95220.13;;;18.59;73.15
6136;BME280;24008;42.664;23.372;2023-09-08T01:35:25;95280.13;;;18.92;73.58
6136;BME280;24008;42.664;23.372;2023-09-08T01:37:52;95254.75;;;18.87;73.87
6136;BME280;24008;42.664;23.372;2023-09-08T01:40:19;95179.34;;;18.38;74.13
6136;BME280;24008;42.664;23.372;2023-09-08T01:42:47;95257.09;;;18.82;74.72
6136;BME280;24008;42.664;23.372;2023-09-08T01:45:14;95272.19;;;18.79;74.28
6136;BME280;24008;42.664;23.372;2023-09-08T01:47:41;95263.16;;;18.75;74.99
6136;BME280;24008;42.664;23.372;2023-09-08T01:50:09;94862.88;;;16.24;74.94
6136;BME280;24008;42.664;23.372;2023-09-08T01:52:35;95258.69;;;18.68;75.62
6136;BME280;24008;42.664;23.372;2023-09-08T01:55:02;95017.13;;;17.13;75.77
6136;BME280;24008;42.664;23.372;2023-09-08T01:57:29;95252.59;;;18.61;76.86
6136;BME280;24008;42.664;23.372;2023-09-08T01:59:57;95230.31;;;18.38;77.17
6136;BME280;24008;42.664;23.372;2023-09-08T02:02:24;95259.00;;;18.51;77.91
6136;BME280;24008;42.664;23.372;2023-09-08T02:04:50;95251.38;;;18.49;78.30
6136;BME280;24008;42.664;23.372;2023-09-08T02:07:17;95150.63;;;17.81;78.61
6136;BME280;24008;42.664;23.372;2023-09-08T02:09:44;95243.38;;;18.44;78.96
6136;BME280;24008;42.664;23.372;2023-09-08T02:12:10;95249.69;;;18.42;79.39
6136;BME280;24008;42.664;23.372;2023-09-08T02:14:36;95218.69;;;18.19;79.75
6136;BME280;24008;42.664;23.372;2023-09-08T02:17:05;95249.59;;;18.35;80.34
6136;BME280;24008;42.664;23.372;2023-09-08T02:19:32;95246.56;;;18.31;80.71
6136;BME280;24008;42.664;23.372;2023-09-08T02:21:59;95122.06;;;17.51;80.94
6136;BME280;24008;42.664;23.372;2023-09-08T02:24:26;95240.91;;;18.28;81.46
6136;BME280;24008;42.664;23.372;2023-09-08T02:26:53;95229.59;;;18.29;81.59
6136;BME280;24008;42.664;23.372;2023-09-08T02:29:19;95202.44;;;18.10;81.78
6136;BME280;24008;42.664;23.372;2023-09-08T02:31:46;95198.75;;;18.05;81.98
6136;BME280;24008;42.664;23.372;2023-09-08T02:34:14;95241.91;;;18.27;82.32
6136;BME280;24008;42.664;23.372;2023-09-08T02:36:41;95179.72;;;17.83;82.61
6136;BME280;24008;42.664;23.372;2023-09-08T02:39:08;95202.63;;;18.09;82.64
6136;BME280;24008;42.664;23.372;2023-09-08T02:41:36;95199.09;;;18.02;83.00
6136;BME280;24008;42.664;23.372;2023-09-08T02:44:03;95232.44;;;18.19;83.27
6136;BME280;24008;42.664;23.372;2023-09-08T02:46:30;95231.16;;;18.15;83.58
6136;BME280;24008;42.664;23.372;2023-09-08T02:48:56;95205.66;;;17.89;84.28
6136;BME280;24008;42.664;23.372;2023-09-08T02:51:24;94958.72;;;16.35;84.22
6136;BME280;24008;42.664;23.372;2023-09-08T02:53:51;95224.34;;;17.99;84.97
6136;BME280;24008;42.664;23.372;2023-09-08T02:56:18;95195.47;;;17.73;85.17
6136;BME280;24008;42.664;23.372;2023-09-08T02:58:45;95224.41;;;17.91;85.98
6136;BME280;24008;42.664;23.372;2023-09-08T03:01:13;95214.59;;;17.87;86.53
6136;BME280;24008;42.664;23.372;2023-09-08T03:03:40;95109.41;;;17.19;87.01
6136;BME280;24008;42.664;23.372;2023-09-08T03:06:08;95112.31;;;17.16;87.79
6136;BME280;24008;42.664;23.372;2023-09-08T03:08:36;95186.00;;;17.57;88.27
6136;BME280;24008;42.664;23.372;2023-09-08T03:11:04;95174.41;;;17.53;88.82
6136;BME280;24008;42.664;23.372;2023-09-08T03:13:31;95222.00;;;17.67;89.34
6136;BME280;24008;42.664;23.372;2023-09-08T03:16:02;95217.47;;;17.69;89.83
6136;BME280;24008;42.664;23.372;2023-09-08T03:18:29;95212.63;;;17.66;90.21
6136;BME280;24008;42.664;23.372;2023-09-08T03:20:58;95197.63;;;17.39;90.40
6136;BME280;24008;42.664;23.372;2023-09-08T03:23:24;95213.31;;;17.60;91.21
6136;BME280;24008;42.664;23.372;2023-09-08T03:25:53;95217.19;;;17.56;91.49
6136;BME280;24008;42.664;23.372;2023-09-08T03:28:19;95217.69;;;17.51;91.85
6136;BME280;24008;42.664;23.372;2023-09-08T03:30:46;95105.28;;;16.79;92.54
6136;BME280;24008;42.664;23.372;2023-09-08T03:33:13;95145.38;;;16.98;92.95
6136;BME280;24008;42.664;23.372;2023-09-08T03:35:39;95159.38;;;17.03;93.29
6136;BME280;24008;42.664;23.372;2023-09-08T03:38:06;95178.06;;;17.13;93.52
6136;BME280;24008;42.664;23.372;2023-09-08T03:40:33;95132.09;;;16.78;94.01
6136;BME280;24008;42.664;23.372;2023-09-08T03:43:01;95192.59;;;17.14;94.03
6136;BME280;24008;42.664;23.372;2023-09-08T03:45:28;95169.59;;;16.97;94.31
6136;BME280;24008;42.664;23.372;2023-09-08T03:47:54;94999.56;;;15.84;94.70
6136;BME280;24008;42.664;23.372;2023-09-08T03:50:21;95213.84;;;17.24;95.51
6136;BME280;24008;42.664;23.372;2023-09-08T03:52:48;95216.28;;;17.18;95.80
6136;BME280;24008;42.664;23.372;2023-09-08T03:55:15;95201.53;;;16.96;96.34
6136;BME280;24008;42.664;23.372;2023-09-08T03:57:42;95220.00;;;17.15;96.99
6136;BME280;24008;42.664;23.372;2023-09-08T04:00:11;95211.63;;;17.13;97.50
6136;BME280;24008;42.664;23.372;2023-09-08T04:02:47;95106.09;;;16.40;97.56
6136;BME280;24008;42.664;23.372;2023-09-08T04:05:15;95187.19;;;16.93;97.67
6136;BME280;24008;42.664;23.372;2023-09-08T04:07:42;95070.69;;;16.18;97.33
6136;BME280;24008;42.664;23.372;2023-09-08T04:10:09;95081.31;;;16.23;97.16
6136;BME280;24008;42.664;23.372;2023-09-08T04:12:36;95145.97;;;16.69;96.87
6136;BME280;24008;42.664;23.372;2023-09-08T04:15:03;95211.97;;;17.10;96.48
6136;BME280;24008;42.664;23.372;2023-09-08T04:17:32;95210.19;;;17.11;96.90
6136;BME280;24008;42.664;23.372;2023-09-08T04:19:59;95213.59;;;17.11;97.09
6136;BME280;24008;42.664;23.372;2023-09-08T04:22:25;95242.00;;;17.11;97.14
6136;BME280;24008;42.664;23.372;2023-09-08T04:24:52;95150.66;;;16.73;97.36
6136;BME280;24008;42.664;23.372;2023-09-08T04:27:19;95223.38;;;17.16;96.88
6136;BME280;24008;42.664;23.372;2023-09-08T04:29:46;95146.50;;;16.64;97.09
6136;BME280;24008;42.664;23.372;2023-09-08T04:32:13;95223.38;;;17.16;97.08
6136;BME280;24008;42.664;23.372;2023-09-08T04:34:41;95222.25;;;17.18;96.91
6136;BME280;24008;42.664;23.372;2023-09-08T04:37:08;95196.69;;;17.01;96.75
6136;BME280;24008;42.664;23.372;2023-09-08T04:39:35;95227.72;;;17.23;96.26
6136;BME280;24008;42.664;23.372;2023-09-08T04:42:04;95238.34;;;17.28;95.53
6136;BME280;24008;42.664;23.372;2023-09-08T04:44:30;95133.09;;;16.61;94.53
6136;BME280;24008;42.664;23.372;2023-09-08T04:46:57;95198.03;;;17.19;94.00
6136;BME280;24008;42.664;23.372;2023-09-08T04:49:24;95230.00;;;17.49;93.77
6136;BME280;24008;42.664;23.372;2023-09-08T04:51:53;95230.13;;;17.56;92.54
6136;BME280;24008;42.664;23.372;2023-09-08T04:54:20;95083.63;;;16.49;91.79
6136;BME280;24008;42.664;23.372;2023-09-08T04:56:47;95237.28;;;17.77;91.57
6136;BME280;24008;42.664;23.372;2023-09-08T04:59:14;95229.91;;;17.88;90.83
6136;BME280;24008;42.664;23.372;2023-09-08T05:01:41;95231.75;;;18.03;89.62
6136;BME280;24008;42.664;23.372;2023-09-08T05:04:09;95200.97;;;17.93;88.50
6136;BME280;24008;42.664;23.372;2023-09-08T05:06:35;95142.66;;;17.68;87.10
6136;BME280;24008;42.664;23.372;2023-09-08T05:09:04;95184.28;;;18.33;86.39
6136;BME280;24008;42.664;23.372;2023-09-08T05:11:32;95062.88;;;18.38;80.84
6136;BME280;24008;42.664;23.372;2023-09-08T05:13:59;95234.16;;;20.51;75.42
6136;BME280;24008;42.664;23.372;2023-09-08T05:16:25;95183.69;;;21.08;70.12
6136;BME280;24008;42.664;23.372;2023-09-08T05:19:02;95238.56;;;21.87;66.14
6136;BME280;24008;42.664;23.372;2023-09-08T05:21:30;95201.75;;;21.97;64.46
6136;BME280;24008;42.664;23.372;2023-09-08T05:23:57;95098.84;;;21.61;62.86
6136;BME280;24008;42.664;23.372;2023-09-08T05:26:25;95237.56;;;23.00;61.17
6136;BME280;24008;42.664;23.372;2023-09-08T05:28:52;95246.78;;;23.60;59.33
6136;BME280;24008;42.664;23.372;2023-09-08T05:31:18;95185.16;;;23.91;57.38
6136;BME280;24008;42.664;23.372;2023-09-08T05:33:45;95211.06;;;24.67;54.02
6136;BME280;24008;42.664;23.372;2023-09-08T05:36:12;95197.09;;;24.36;53.78
6136;BME280;24008;42.664;23.372;2023-09-08T05:38:39;95241.03;;;24.15;54.29
6136;BME280;24008;42.664;23.372;2023-09-08T05:41:06;95237.44;;;24.40;54.30
6136;BME280;24008;42.664;23.372;2023-09-08T05:43:34;95244.72;;;24.38;54.21
6136;BME280;24008;42.664;23.372;2023-09-08T05:46:01;95198.59;;;23.63;54.05
6136;BME280;24008;42.664;23.372;2023-09-08T05:48:29;95259.38;;;23.12;56.20
6136;BME280;24008;42.664;23.372;2023-09-08T05:50:56;95067.00;;;21.66;55.89
6136;BME280;24008;42.664;23.372;2023-09-08T05:53:23;95261.41;;;23.10;55.76
6136;BME280;24008;42.664;23.372;2023-09-08T05:55:49;94973.91;;;22.07;51.30
6136;BME280;24008;42.664;23.372;2023-09-08T05:58:16;95249.28;;;24.43;49.68
6136;BME280;24008;42.664;23.372;2023-09-08T06:00:44;95191.31;;;24.71;47.21
6136;BME280;24008;42.664;23.372;2023-09-08T06:03:11;95251.22;;;25.34;47.18
6136;BME280;24008;42.664;23.372;2023-09-08T06:05:38;95204.81;;;25.41;46.70
6136;BME280;24008;42.664;23.372;2023-09-08T06:08:05;95260.22;;;26.16;46.06
6136;BME280;24008;42.664;23.372;2023-09-08T06:10:32;95167.00;;;25.97;43.14
6136;BME280;24008;42.664;23.372;2023-09-08T06:12:59;95260.91;;;26.76;42.96
6136;BME280;24008;42.664;23.372;2023-09-08T06:15:26;95253.38;;;26.92;42.70
6136;BME280;24008;42.664;23.372;2023-09-08T06:17:55;95253.47;;;26.50;41.93
6136;BME280;24008;42.664;23.372;2023-09-08T06:20:21;95261.94;;;26.22;42.04
6136;BME280;24008;42.664;23.372;2023-09-08T06:22:50;95254.84;;;26.11;42.79
6136;BME280;24008;42.664;23.372;2023-09-08T06:25:17;95257.25;;;26.66;42.33
6136;BME280;24008;42.664;23.372;2023-09-08T06:27:44;95253.53;;;27.37;39.45
6136;BME280;24008;42.664;23.372;2023-09-08T06:30:11;95255.28;;;27.19;39.52
6136;BME280;24008;42.664;23.372;2023-09-08T06:32:39;95268.31;;;27.66;38.77
6136;BME280;24008;42.664;23.372;2023-09-08T06:35:08;95150.53;;;27.18;38.30
6136;BME280;24008;42.664;23.372;2023-09-08T06:37:35;95269.69;;;27.97;36.91
6136;BME280;24008;42.664;23.372;2023-09-08T06:40:03;95279.03;;;27.24;38.13
6136;BME280;24008;42.664;23.372;2023-09-08T06:42:30;95281.16;;;27.79;38.05
6136;BME280;24008;42.664;23.372;2023-09-08T06:44:58;95275.34;;;28.67;36.41
6136;BME280;24008;42.664;23.372;2023-09-08T06:47:25;95277.59;;;28.42;35.86
6136;BME280;24008;42.664;23.372;2023-09-08T06:49:52;95159.16;;;27.30;36.13
6136;BME280;24008;42.664;23.372;2023-09-08T06:52:20;94849.56;;;24.90;36.34
6136;BME280;24008;42.664;23.372;2023-09-08T06:54:47;95269.34;;;26.90;37.43
6136;BME280;24008;42.664;23.372;2023-09-08T06:57:14;95279.13;;;27.18;36.93
6136;BME280;24008;42.664;23.372;2023-09-08T06:59:41;95167.53;;;26.29;37.32
6136;BME280;24008;42.664;23.372;2023-09-08T07:02:08;95123.75;;;26.06;37.10
6136;BME280;24008;42.664;23.372;2023-09-08T07:04:35;95290.31;;;27.25;36.59
6136;BME280;24008;42.664;23.372;2023-09-08T07:07:02;95145.75;;;26.63;37.00
6136;BME280;24008;42.664;23.372;2023-09-08T07:09:35;95240.94;;;27.50;36.02
6136;BME280;24008;42.664;23.372;2023-09-08T07:12:03;95283.66;;;27.46;36.31
6136;BME280;24008;42.664;23.372;2023-09-08T07:14:30;95238.44;;;27.44;36.55
6136;BME280;24008;42.664;23.372;2023-09-08T07:16:57;95231.06;;;27.41;35.71
6136;BME280;24008;42.664;23.372;2023-09-08T07:19:25;95282.50;;;27.42;36.12
6136;BME280;24008;42.664;23.372;2023-09-08T07:21:52;95269.75;;;27.34;35.88
6136;BME280;24008;42.664;23.372;2023-09-08T07:24:19;95276.91;;;27.62;35.27
6136;BME280;24008;42.664;23.372;2023-09-08T07:26:48;95152.84;;;27.43;34.80
6136;BME280;24008;42.664;23.372;2023-09-08T07:29:16;95270.41;;;28.21;34.28
6136;BME280;24008;42.664;23.372;2023-09-08T07:31:43;95268.16;;;28.29;34.54
6136;BME280;24008;42.664;23.372;2023-09-08T07:34:10;95272.47;;;28.52;33.96
6136;BME280;24008;42.664;23.372;2023-09-08T07:36:36;95264.81;;;28.67;33.96
6136;BME280;24008;42.664;23.372;2023-09-08T07:39:04;95272.78;;;29.06;33.70
6136;BME280;24008;42.664;23.372;2023-09-08T07:41:30;95171.63;;;28.25;33.65
6136;BME280;24008;42.664;23.372;2023-09-08T07:43:59;95268.47;;;29.00;33.66
6136;BME280;24008;42.664;23.372;2023-09-08T07:46:26;95148.56;;;28.49;32.83
6136;BME280;24008;42.664;23.372;2023-09-08T07:48:52;95165.09;;;28.83;33.03
6136;BME280;24008;42.664;23.372;2023-09-08T07:51:19;95112.25;;;28.29;32.99
6136;BME280;24008;42.664;23.372;2023-09-08T07:53:46;95247.25;;;29.07;33.36
6136;BME280;24008;42.664;23.372;2023-09-08T07:56:13;95241.13;;;29.23;32.68
6136;BME280;24008;42.664;23.372;2023-09-08T07:58:39;95225.97;;;29.30;33.35
6136;BME280;24008;42.664;23.372;2023-09-08T08:01:08;95259.31;;;29.41;33.37
6136;BME280;24008;42.664;23.372;2023-09-08T08:03:34;95268.13;;;28.13;34.75
6136;BME280;24008;42.664;23.372;2023-09-08T08:06:02;95209.22;;;26.88;36.07
6136;BME280;24008;42.664;23.372;2023-09-08T08:08:29;95273.81;;;27.65;35.80
6136;BME280;24008;42.664;23.372;2023-09-08T08:10:55;95263.69;;;27.33;35.77
6136;BME280;24008;42.664;23.372;2023-09-08T08:13:22;95263.56;;;27.51;35.74
6136;BME280;24008;42.664;23.372;2023-09-08T08:15:49;95258.06;;;27.65;34.85
6136;BME280;24008;42.664;23.372;2023-09-08T08:18:17;95117.31;;;27.23;34.18
6136;BME280;24008;42.664;23.372;2023-09-08T08:20:44;95229.59;;;28.18;34.51
6136;BME280;24008;42.664;23.372;2023-09-08T08:23:11;95258.78;;;28.05;35.01
6136;BME280;24008;42.664;23.372;2023-09-08T08:25:38;95251.25;;;28.76;33.33
6136;BME280;24008;42.664;23.372;2023-09-08T08:28:05;95023.72;;;27.79;32.96
6136;BME280;24008;42.664;23.372;2023-09-08T08:30:32;95246.75;;;29.97;32.02
6136;BME280;24008;42.664;23.372;2023-09-08T08:32:59;94954.28;;;29.06;31.21
6136;BME280;24008;42.664;23.372;2023-09-08T08:35:27;95254.03;;;31.80;29.49
6136;BME280;24008;42.664;23.372;2023-09-08T08:37:54;95255.53;;;31.03;28.61
6136;BME280;24008;42.664;23.372;2023-09-08T08:40:21;95249.50;;;29.85;30.28
6136;BME280;24008;42.664;23.372;2023-09-08T08:42:54;95243.88;;;29.98;29.75
6136;BME280;24008;42.664;23.372;2023-09-08T08:45:22;95165.72;;;29.87;30.50
6136;BME280;24008;42.664;23.372;2023-09-08T08:47:49;95245.47;;;30.58;29.86
6136;BME280;24008;42.664;23.372;2023-09-08T08:50:17;95096.31;;;29.45;30.35
6136;BME280;24008;42.664;23.372;2023-09-08T08:52:46;95255.16;;;30.21;29.76
6136;BME280;24008;42.664;23.372;2023-09-08T08:55:13;95118.31;;;28.85;30.85
6136;BME280;24008;42.664;23.372;2023-09-08T08:57:41;95200.88;;;29.71;30.50
6136;BME280;24008;42.664;23.372;2023-09-08T09:00:10;95233.41;;;30.08;30.24
6136;BME280;24008;42.664;23.372;2023-09-08T09:02:39;95192.03;;;29.12;30.94
6136;BME280;24008;42.664;23.372;2023-09-08T09:05:09;95211.34;;;28.12;32.29
6136;BME280;24008;42.664;23.372;2023-09-08T09:07:37;95154.13;;;28.02;32.31
6136;BME280;24008;42.664;23.372;2023-09-08T09:10:07;95249.38;;;28.38;32.76
6136;BME280;24008;42.664;23.372;2023-09-08T09:12:34;95215.84;;;27.83;33.24
6136;BME280;24008;42.664;23.372;2023-09-08T09:15:03;95244.94;;;27.41;34.41
6136;BME280;24008;42.664;23.372;2023-09-08T09:17:32;95245.94;;;27.12;35.55
6136;BME280;24008;42.664;23.372;2023-09-08T09:20:15;95236.38;;;26.59;35.94
6136;BME280;24008;42.664;23.372;2023-09-08T09:22:43;95244.94;;;26.54;36.25
6136;BME280;24008;42.664;23.372;2023-09-08T09:25:21;95206.88;;;26.10;36.29
6136;BME280;24008;42.664;23.372;2023-09-08T09:27:50;95189.34;;;26.23;36.07
6136;BME280;24008;42.664;23.372;2023-09-08T09:30:17;95222.22;;;26.48;36.34
6136;BME280;24008;42.664;23.372;2023-09-08T09:32:44;95239.78;;;26.36;36.75
6136;BME280;24008;42.664;23.372;2023-09-08T09:35:11;95241.41;;;26.96;36.38
6136;BME280;24008;42.664;23.372;2023-09-08T09:37:40;95192.91;;;27.10;35.14
6136;BME280;24008;42.664;23.372;2023-09-08T09:40:08;95148.91;;;26.77;35.50
6136;BME280;24008;42.664;23.372;2023-09-08T09:42:38;95235.47;;;27.80;34.69
6136;BME280;24008;42.664;23.372;2023-09-08T09:45:07;95234.72;;;27.96;34.57
6136;BME280;24008;42.664;23.372;2023-09-08T09:47:34;95236.38;;;27.46;35.13
6136;BME280;24008;42.664;23.372;2023-09-08T09:50:01;95168.91;;;26.31;35.92
6136;BME280;24008;42.664;23.372;2023-09-08T09:52:28;95230.53;;;26.45;36.79
6136;BME280;24008;42.664;23.372;2023-09-08T09:54:58;95196.59;;;25.97;38.02
6136;BME280;24008;42.664;23.372;2023-09-08T09:57:26;95226.88;;;25.81;38.81
6136;BME280;24008;42.664;23.372;2023-09-08T09:59:56;95168.72;;;26.03;38.19
6136;BME280;24008;42.664;23.372;2023-09-08T10:02:25;95193.94;;;26.97;36.75
6136;BME280;24008;42.664;23.372;2023-09-08T10:04:53;95166.09;;;27.08;36.36
6136;BME280;24008;42.664;23.372;2023-09-08T10:07:20;95215.56;;;27.28;36.89
6136;BME280;24008;42.664;23.372;2023-09-08T10:09:48;95174.44;;;26.93;36.76
6136;BME280;24008;42.664;23.372;2023-09-08T10:12:15;95212.88;;;26.99;37.34
6136;BME280;24008;42.664;23.372;2023-09-08T10:14:45;95114.31;;;26.28;37.29
6136;BME280;24008;42.664;23.372;2023-09-08T10:17:19;94834.16;;;23.87;37.64
6136;BME280;24008;42.664;23.372;2023-09-08T10:19:55;95145.44;;;25.41;38.18
6136;BME280;24008;42.664;23.372;2023-09-08T10:22:26;95204.50;;;25.49;39.16
6136;BME280;24008;42.664;23.372;2023-09-08T10:24:57;95079.44;;;24.61;39.31
6136;BME280;24008;42.664;23.372;2023-09-08T10:27:29;95138.56;;;24.99;39.86
6136;BME280;24008;42.664;23.372;2023-09-08T10:30:00;95008.34;;;24.16;40.58
6136;BME280;24008;42.664;23.372;2023-09-08T10:32:31;95208.13;;;25.18;40.97
6136;BME280;24008;42.664;23.372;2023-09-08T10:34:59;95198.69;;;25.17;41.56
6136;BME280;24008;42.664;23.372;2023-09-08T10:37:28;95197.88;;;25.35;40.87
6136;BME280;24008;42.664;23.372;2023-09-08T10:39:55;95152.91;;;25.08;41.01
6136;BME280;24008;42.664;23.372;2023-09-08T10:42:24;95020.50;;;24.29;41.02
6136;BME280;24008;42.664;23.372;2023-09-08T10:44:58;95196.09;;;25.47;40.94
6136;BME280;24008;42.664;23.372;2023-09-08T10:47:34;95190.31;;;25.87;39.75
6136;BME280;24008;42.664;23.372;2023-09-08T10:50:07;95156.63;;;25.90;39.39
6136;BME280;24008;42.664;23.372;2023-09-08T10:52:34;95119.44;;;25.58;39.39
6136;BME280;24008;42.664;23.372;2023-09-08T10:55:03;95159.91;;;25.44;39.91
6136;BME280;24008;42.664;23.372;2023-09-08T10:57:33;95189.78;;;25.36;40.48
6136;BME280;24008;42.664;23.372;2023-09-08T11:00:02;95193.13;;;25.25;40.86
6136;BME280;24008;42.664;23.372;2023-09-08T11:02:36;95175.28;;;25.22;41.15
6136;BME280;24008;42.664;23.372;2023-09-08T11:05:06;95128.00;;;24.87;41.85
6136;BME280;24008;42.664;23.372;2023-09-08T11:07:35;95191.31;;;25.26;42.25
6136;BME280;24008;42.664;23.372;2023-09-08T11:10:02;95194.97;;;25.06;42.05
6136;BME280;24008;42.664;23.372;2023-09-08T11:12:30;95186.81;;;24.78;42.18
6136;BME280;24008;42.664;23.372;2023-09-08T11:14:57;95155.00;;;24.81;42.74
6136;BME280;24008;42.664;23.372;2023-09-08T11:17:26;95102.59;;;24.58;42.21
6136;BME280;24008;42.664;23.372;2023-09-08T11:19:54;95147.00;;;25.12;41.75
6136;BME280;24008;42.664;23.372;2023-09-08T11:22:22;95125.00;;;25.02;41.46
6136;BME280;24008;42.664;23.372;2023-09-08T11:24:50;95095.75;;;24.57;42.35
6136;BME280;24008;42.664;23.372;2023-09-08T11:27:18;95180.94;;;24.83;42.46
6136;BME280;24008;42.664;23.372;2023-09-08T11:29:45;95122.03;;;24.44;42.65
6136;BME280;24008;42.664;23.372;2023-09-08T11:32:12;95178.38;;;24.76;42.52
6136;BME280;24008;42.664;23.372;2023-09-08T11:34:39;95165.97;;;24.71;42.53
6136;BME280;24008;42.664;23.372;2023-09-08T11:37:09;95145.56;;;24.62;42.78
6136;BME280;24008;42.664;23.372;2023-09-08T11:39:38;95165.56;;;25.11;42.85
6136;BME280;24008;42.664;23.372;2023-09-08T11:42:06;95181.31;;;25.53;41.59
6136;BME280;24008;42.664;23.372;2023-09-08T11:44:34;95157.72;;;25.41;41.69
6136;BME280;24008;42.664;23.372;2023-09-08T11:47:02;95180.78;;;25.14;42.13
6136;BME280;24008;42.664;23.372;2023-09-08T11:49:34;95150.66;;;25.11;42.20
6136;BME280;24008;42.664;23.372;2023-09-08T11:52:01;95104.19;;;24.95;42.60
6136;BME280;24008;42.664;23.372;2023-09-08T11:54:29;95147.91;;;25.06;41.88
6136;BME280;24008;42.664;23.372;2023-09-08T11:56:57;94979.50;;;24.11;42.50
6136;BME280;24008;42.664;23.372;2023-09-08T11:59:25;95128.03;;;25.17;42.08
6136;BME280;24008;42.664;23.372;2023-09-08T12:01:52;95168.31;;;25.16;41.59
6136;BME280;24008;42.664;23.372;2023-09-08T12:04:19;95121.03;;;24.63;42.25
6136;BME280;24008;42.664;23.372;2023-09-08T12:06:47;95105.94;;;24.47;42.64
6136;BME280;24008;42.664;23.372;2023-09-08T12:09:14;95140.63;;;24.72;42.93
6136;BME280;24008;42.664;23.372;2023-09-08T12:11:43;95167.06;;;24.82;42.71
6136;BME280;24008;42.664;23.372;2023-09-08T12:14:11;95035.25;;;24.23;41.99
6136;BME280;24008;42.664;23.372;2023-09-08T12:16:38;95134.13;;;24.99;41.93
6136;BME280;24008;42.664;23.372;2023-09-08T12:19:05;95135.97;;;24.92;41.75
6136;BME280;24008;42.664;23.372;2023-09-08T12:21:35;95108.69;;;24.70;41.47
6136;BME280;24008;42.664;23.372;2023-09-08T12:24:18;95093.72;;;24.59;42.19
6136;BME280;24008;42.664;23.372;2023-09-08T12:26:47;95112.66;;;24.91;41.43
6136;BME280;24008;42.664;23.372;2023-09-08T12:29:13;95125.66;;;25.16;41.10
6136;BME280;24008;42.664;23.372;2023-09-08T12:31:40;95121.84;;;25.30;40.83
6136;BME280;24008;42.664;23.372;2023-09-08T12:34:07;95038.63;;;24.90;40.89
6136;BME280;24008;42.664;23.372;2023-09-08T12:36:35;95120.25;;;25.29;40.83
6136;BME280;24008;42.664;23.372;2023-09-08T12:39:04;95105.19;;;24.76;41.47
6136;BME280;24008;42.664;23.372;2023-09-08T12:41:31;95084.72;;;24.55;42.52
6136;BME280;24008;42.664;23.372;2023-09-08T12:43:59;95063.03;;;24.36;42.29
6136;BME280;24008;42.664;23.372;2023-09-08T12:46:25;95022.00;;;24.18;42.64
6136;BME280;24008;42.664;23.372;2023-09-08T12:48:52;95102.28;;;24.84;42.34
6136;BME280;24008;42.664;23.372;2023-09-08T12:51:19;94963.44;;;24.08;41.80
6136;BME280;24008;42.664;23.372;2023-09-08T12:53:46;94966.00;;;24.14;41.57
6136;BME280;24008;42.664;23.372;2023-09-08T12:56:12;94921.28;;;24.04;41.33
6136;BME280;24008;42.664;23.372;2023-09-08T12:58:39;95110.78;;;25.28;40.98
6136;BME280;24008;42.664;23.372;2023-09-08T13:01:07;95003.97;;;24.65;40.87
6136;BME280;24008;42.664;23.372;2023-09-08T13:03:34;94961.19;;;24.48;41.30